Antlers Park, Minnesota
Current Conditions -  °F | °C
As of 5:46 PM on Saturday 22 Nov 2014 (Local Time) from KLVN Reporting Station
Haze Haze  
Wind Chill: 31°   Ceiling: 300
Heat Index: 36°   Visibility: 1.2mi
Dew Point: 34°   Wind: 6mph
Humidity: 93%   Direction: 140°SE
Pressure: 29.61"   Gusts: NA
Location:  44.6349°N, 93.283°W
Report Text: KLVN 222346Z AUTO 14005KT 1 1/4SM BR OVC003 02/01 A2961 RMK AO2
Loading
Personal Weather Stations






























Interactive Weather Map New forecast layout! Learn more

10-Day Weather Forecast

Advertisements
Track Severe Weather on mobile